createdAt,value
2018-04-22T00:02:35.077Z,94775.89
2018-04-22T00:17:37.766Z,94765.43
2018-04-22T00:32:34.346Z,94752.38
2018-04-22T00:47:36.159Z,94780.81
2018-04-22T01:02:34.325Z,94783.62
2018-04-22T01:17:35.230Z,94781.46
2018-04-22T01:32:34.659Z,94765.22
2018-04-22T01:47:34.650Z,94761.41
2018-04-22T02:02:34.368Z,94751.30
2018-04-22T02:17:34.476Z,94743.99
2018-04-22T02:32:34.864Z,94746.34
2018-04-22T02:47:36.389Z,94740.05
2018-04-22T03:02:34.810Z,94737.65
2018-04-22T03:17:34.751Z,94727.52
2018-04-22T03:32:35.146Z,94747.01
2018-04-22T03:47:37.068Z,94757.63
2018-04-22T04:02:35.015Z,94777.71
2018-04-22T04:17:35.042Z,94771.19
2018-04-22T04:32:34.416Z,94772.08
2018-04-22T04:47:33.826Z,94756.84
2018-04-22T05:02:35.837Z,94745.36
2018-04-22T05:17:34.262Z,94738.33
2018-04-22T05:32:34.622Z,94739.44
2018-04-22T05:47:35.130Z,94756.51
2018-04-22T06:02:34.091Z,94748.70
2018-04-22T06:20:28.546Z,94743.05
2018-04-22T06:22:56.151Z,94738.02
2018-04-22T06:25:23.765Z,94738.73
2018-04-22T06:27:51.352Z,94738.16
2018-04-22T06:30:18.911Z,94739.38
2018-04-22T06:32:46.522Z,94737.31
2018-04-22T06:47:35.310Z,94720.36
2018-04-22T07:02:34.353Z,94722.18
2018-04-22T07:17:35.333Z,94706.48
2018-04-22T07:32:37.160Z,94698.89
2018-04-22T07:47:37.258Z,94693.44
2018-04-22T08:02:36.124Z,94702.50
2018-04-22T08:17:35.115Z,94700.67
2018-04-22T08:32:34.459Z,94690.20
2018-04-22T08:47:34.675Z,94678.13
2018-04-22T09:02:34.369Z,94663.73
2018-04-22T09:17:34.318Z,94644.98
2018-04-22T09:32:34.753Z,94642.56
2018-04-22T09:47:34.170Z,94628.69
2018-04-22T10:02:34.650Z,94624.23
2018-04-22T10:17:34.595Z,94616.16
2018-04-22T10:32:35.544Z,94595.55
2018-04-22T10:47:34.956Z,94590.30
2018-04-22T11:02:34.925Z,94572.41
2018-04-22T11:17:40.844Z,94560.71
2018-04-22T11:32:36.306Z,94537.66
2018-04-22T11:47:34.220Z,94513.91
2018-04-22T12:02:34.180Z,94514.23
2018-04-22T12:17:35.129Z,94490.80
2018-04-22T12:32:34.617Z,94475.41
2018-04-22T12:47:34.478Z,94451.13
2018-04-22T13:02:34.518Z,94447.83
2018-04-22T13:17:34.389Z,94424.23
2018-04-22T13:32:34.775Z,94415.83
2018-04-22T13:47:34.284Z,94410.05
2018-04-22T14:02:35.568Z,94389.13
2018-04-22T14:17:34.691Z,94395.28
2018-04-22T14:32:34.838Z,94385.41
2018-04-22T14:47:37.555Z,94383.16
2018-04-22T15:02:35.035Z,94384.20
2018-04-22T15:17:36.776Z,94387.88
2018-04-22T15:32:33.926Z,94384.23
2018-04-22T15:47:34.386Z,94373.45
2018-04-22T16:02:34.383Z,94379.81
2018-04-22T16:17:34.145Z,94381.58
2018-04-22T16:32:34.657Z,94393.90
2018-04-22T16:47:34.522Z,94408.50
2018-04-22T17:02:34.629Z,94417.70
2018-04-22T17:17:34.571Z,94428.59
2018-04-22T17:32:37.797Z,94439.30
2018-04-22T17:47:34.988Z,94452.66
2018-04-22T18:02:34.951Z,94465.23
2018-04-22T18:17:34.258Z,94482.37
2018-04-22T18:32:36.034Z,94493.66
2018-04-22T18:47:34.082Z,94503.92
2018-04-22T19:02:36.010Z,94517.38
2018-04-22T19:17:34.165Z,94513.98
2018-04-22T19:32:40.365Z,94519.45
2018-04-22T19:47:36.741Z,94529.64
2018-04-22T20:02:43.246Z,94532.28
2018-04-22T20:17:36.505Z,94523.02
2018-04-22T20:32:34.926Z,94529.27
2018-04-22T20:47:39.634Z,94531.79
2018-04-22T21:02:37.566Z,94522.98
2018-04-22T21:17:34.111Z,94517.95
2018-04-22T21:32:36.938Z,94533.52
2018-04-22T21:47:33.851Z,94547.36
2018-04-22T22:02:35.065Z,94555.61
2018-04-22T22:17:34.798Z,94547.05
2018-04-22T22:32:34.862Z,94544.19
2018-04-22T22:47:34.333Z,94540.17
2018-04-22T23:02:36.302Z,94533.51
2018-04-22T23:17:34.293Z,94532.09
2018-04-22T23:32:36.685Z,94537.16
2018-04-22T23:47:34.698Z,94541.39
